Chadstone Weather > Observations for 28/03/21

Select Day:



Observations
Time Temp Hum DP Wind Gust Dir Rain >9am Press
C % C kph kph mm hPa
00:00 16.0 76 11.8 3.2 9.7 W 0.3 1004.3
00:10 16.0 75 11.6 2.7 9.7 W 0.3 1004.4
00:20 16.0 74 11.4 2.4 9.7 SW 0.3 1004.4
00:30 15.9 75 11.5 1.7 9.7 WSW 0.3 1004.6
00:40 15.7 75 11.3 1.5 7.2 W 0.3 1004.5
00:50 15.5 76 11.3 0.9 5.0 WNW 0.3 1004.6
01:00 15.2 76 11.0 1.6 6.1 W 0.3 1004.7
01:10 15.1 77 11.1 2.8 6.1 WNW 0.3 1004.7
01:20 15.0 77 11.0 2.1 6.1 NW 0.3 1004.7
01:30 14.9 79 11.3 0.2 3.6 NW 0.3 1004.8
01:40 14.7 79 11.1 0.0 0.0 N 0.3 1004.8
01:50 14.4 80 11.0 0.0 0.0 N 0.3 1004.9
02:00 14.3 81 11.1 0.0 2.5 NW 0.3 1005.0
02:10 14.0 82 11.0 0.0 0.0 N 0.3 1005.0
02:20 13.6 84 11.0 0.0 0.0 N 0.3 1005.0
02:30 13.4 85 10.9 0.0 1.1 N 0.3 1005.1
02:40 13.3 85 10.8 0.0 0.0 N 0.3 1005.1
02:50 13.2 85 10.7 0.0 0.0 N 0.3 1005.2
03:00 13.0 86 10.7 0.0 0.0 N 0.3 1005.2
03:10 12.8 86 10.5 0.0 0.0 N 0.3 1005.1
03:20 12.6 86 10.3 0.0 0.0 N 0.3 1005.1
03:30 12.4 86 10.1 0.0 0.0 N 0.3 1005.2
03:40 12.3 87 10.2 0.0 0.0 N 0.3 1005.2
03:50 12.1 87 10.0 0.0 0.0 N 0.3 1005.2
04:00 12.1 88 10.2 0.0 0.0 N 0.3 1005.2
04:10 12.1 88 10.2 0.0 0.0 N 0.3 1005.1
04:20 12.0 88 10.1 0.0 0.0 N 0.3 1005.1
04:30 12.1 89 10.3 0.0 0.0 N 0.3 1005.3
04:40 12.0 89 10.2 0.0 0.0 N 0.3 1005.3
04:50 11.9 90 10.3 0.0 0.0 N 0.3 1005.3
05:00 11.9 90 10.3 0.0 0.0 N 0.3 1005.3
05:10 11.9 91 10.5 0.0 0.0 N 0.3 1005.6
05:20 11.8 91 10.4 0.0 0.0 N 0.3 1005.6
05:30 11.8 91 10.4 0.0 0.0 N 0.3 1005.7
05:40 11.7 91 10.3 0.0 0.0 N 0.3 1005.6
05:50 11.6 92 10.3 0.0 0.0 N 0.3 1006.0
06:00 11.8 92 10.5 0.0 0.0 N 0.3 1005.9
06:10 11.7 92 10.4 0.0 0.0 N 0.3 1006.1
06:20 11.6 92 10.3 0.0 0.0 N 0.3 1006.2
06:30 11.6 92 10.3 0.0 0.0 N 0.3 1006.3
06:40 11.8 92 10.5 0.0 0.0 N 0.3 1006.4
06:50 11.9 92 10.6 0.0 0.0 N 0.3 1006.7
07:00 12.0 91 10.6 0.0 0.0 N 0.3 1006.9
07:10 12.1 91 10.7 0.0 0.0 N 0.3 1007.0
07:20 12.1 91 10.7 0.0 0.0 N 0.3 1007.2
07:30 12.2 91 10.8 0.0 0.0 N 0.3 1007.2
07:40 12.3 91 10.9 0.0 0.0 N 0.3 1007.3
07:50 12.3 91 10.9 0.0 0.0 N 0.3 1007.4
08:00 12.4 90 10.8 0.0 0.0 N 0.3 1007.4
08:10 12.5 90 10.9 0.0 0.0 N 0.3 1007.6
08:20 12.6 90 11.0 0.0 0.0 N 0.3 1007.5
08:30 12.6 89 10.8 0.0 0.0 N 0.3 1007.7
08:40 12.5 89 10.7 0.0 0.0 N 0.3 1007.8
08:50 12.6 89 10.8 0.0 0.0 N 0.3 1007.8
09:00 13.0 89 11.2 0.2 5.0 NW 0.3 1008.0
09:10 13.3 88 11.4 1.5 6.1 NW 0.3 1007.9
09:20 13.9 88 12.0 1.7 7.2 NW 0.3 1008.0
09:30 14.1 86 11.8 2.1 7.2 NW 0.3 1007.8
09:40 14.4 85 11.9 2.3 7.2 NW 0.3 1007.8
09:50 14.5 85 12.0 2.0 7.2 NW 0.3 1007.9
10:00 15.2 84 12.5 3.1 9.7 WNW 0.0 1008.1
10:10 15.8 83 12.9 4.7 13.3 NW 0.0 1008.0
10:20 16.0 79 12.4 4.6 13.3 WNW 0.0 1008.1
10:30 16.2 78 12.4 5.9 11.2 WNW 0.0 1008.0
10:40 16.5 77 12.5 6.2 15.8 WSW 0.0 1008.2
10:50 16.6 76 12.4 5.8 12.2 WNW 0.0 1008.3
11:00 16.7 76 12.5 6.9 14.8 WNW 0.0 1008.3
11:10 16.9 75 12.4 4.2 13.3 WSW 0.0 1008.3
11:20 17.3 74 12.6 6.5 12.2 WNW 0.0 1008.2
11:30 17.7 73 12.8 2.5 11.2 W 0.0 1008.3
11:40 18.0 72 12.9 3.5 12.2 WNW 0.0 1008.3
11:50 17.9 72 12.8 4.5 12.2 WNW 0.0 1008.2
12:00 18.0 71 12.7 3.8 13.3 NNW 0.0 1008.3
12:10 17.9 71 12.6 5.0 17.3 W 0.0 1008.2
12:20 18.4 70 12.8 4.0 13.3 WNW 0.0 1008.0
12:30 18.9 68 12.9 5.8 17.3 WSW 0.0 1008.0
12:40 18.9 67 12.6 3.4 12.2 W 0.0 1008.0
12:50 19.0 65 12.3 3.3 14.8 SE 0.0 1007.8
13:00 19.2 64 12.2 2.7 9.7 WSW 0.0 1007.7
13:10 19.5 61 11.8 1.4 14.8 SW 0.0 1007.6
13:20 19.7 62 12.2 2.8 14.8 WSW 0.0 1007.5
13:30 20.0 60 12.0 2.7 11.2 SW 0.0 1007.4
13:40 20.3 58 11.8 4.3 13.3 WSW 0.0 1007.2
13:50 20.4 60 12.4 3.1 17.3 SW 0.0 1007.2
14:00 20.4 58 11.9 2.3 8.6 SSW 0.0 1007.0
14:10 20.5 58 12.0 1.6 11.2 WSW 0.0 1007.0
14:20 20.6 57 11.8 2.6 17.3 WSW 0.0 1006.8
14:30 20.7 56 11.6 1.8 8.6 WNW 0.0 1006.8
14:40 20.2 53 10.3 0.6 7.2 SSW 0.0 1006.8
14:50 20.0 56 11.0 2.9 15.8 SW 0.0 1006.7
15:00 20.1 57 11.3 0.8 9.7 S 0.0 1006.6
15:10 20.0 59 11.8 1.4 9.7 SSW 0.0 1006.6
15:20 19.9 61 12.2 1.4 9.7 SSE 0.0 1006.5
15:30 20.3 59 12.0 1.2 7.2 SW 0.0 1006.5
15:40 20.1 61 12.4 1.7 12.2 SW 0.0 1006.4
15:50 20.0 60 12.0 1.1 6.1 SSW 0.0 1006.4
16:00 19.8 61 12.1 0.5 6.1 SW 0.0 1006.3
16:10 20.0 59 11.8 1.3 7.2 WNW 0.0 1006.2
16:20 20.0 55 10.7 2.2 8.6 S 0.0 1006.1
16:30 20.0 56 11.0 0.8 7.2 WSW 0.0 1006.0
16:40 20.2 57 11.4 3.3 11.2 W 0.0 1006.1
16:50 20.2 56 11.2 0.2 5.0 WSW 0.0 1006.1
17:00 20.3 56 11.2 0.8 7.2 SW 0.0 1006.0
17:10 20.2 55 10.9 1.4 7.2 SW 0.0 1006.1
17:20 20.2 56 11.2 0.0 3.6 SW 0.0 1006.2
17:30 20.1 56 11.1 1.7 9.7 SSW 0.0 1006.1
17:40 20.0 57 11.2 1.2 8.6 W 0.0 1006.2
17:50 20.0 58 11.5 1.0 5.0 SSW 0.0 1006.4
18:00 20.0 57 11.2 0.2 6.1 SSW 0.0 1006.4
18:10 19.9 59 11.7 1.4 8.6 W 0.0 1006.5
18:20 19.8 59 11.6 0.6 7.2 SW 0.0 1006.5
18:30 19.6 60 11.6 0.6 7.2 SW 0.0 1006.5
18:40 19.2 63 12.0 0.3 5.0 NW 0.0 1006.6
18:50 18.8 64 11.9 0.1 5.0 WSW 0.0 1006.8
19:00 18.7 65 12.0 0.2 3.6 NW 0.0 1006.8
19:10 18.5 66 12.0 0.0 0.0 N 0.0 1006.8
19:20 18.2 67 12.0 0.0 0.0 N 0.0 1006.9
19:30 18.1 68 12.1 0.0 0.0 N 0.0 1007.0
19:40 17.9 69 12.1 0.0 0.0 N 0.0 1006.9
19:50 17.5 70 12.0 0.0 0.0 N 0.0 1007.0
20:00 17.1 71 11.8 0.0 0.0 N 0.0 1007.2
20:10 17.1 72 12.0 0.0 0.0 N 0.0 1007.3
20:20 17.3 72 12.2 0.0 0.0 N 0.0 1007.5
20:30 17.4 72 12.3 0.0 2.5 SSE 0.0 1007.7
20:40 17.4 73 12.5 0.2 5.0 S 0.0 1007.7
20:50 17.2 73 12.3 0.0 1.1 S 0.0 1007.7
21:00 16.9 75 12.4 0.0 0.0 N 0.0 1007.8
21:10 16.7 75 12.3 0.0 0.0 N 0.0 1008.0
21:20 16.4 76 12.2 0.0 0.0 N 0.0 1008.3
21:30 16.3 77 12.3 0.0 0.0 N 0.0 1008.2
21:40 16.1 79 12.5 0.0 0.0 N 0.0 1008.4
21:50 16.1 80 12.7 0.0 0.0 N 0.0 1008.6
22:00 16.1 81 12.8 0.0 0.0 N 0.0 1008.6
22:10 16.1 82 13.0 0.0 0.0 N 0.0 1008.8
22:20 16.1 82 13.0 0.0 0.0 N 0.0 1009.1
22:30 16.2 83 13.3 0.0 0.0 N 0.0 1009.2
22:40 16.3 83 13.4 0.0 0.0 N 0.0 1009.3
22:50 16.4 83 13.5 0.0 0.0 N 0.0 1009.3
23:00 16.4 83 13.5 0.0 0.0 N 0.0 1009.3
23:10 16.5 83 13.6 0.0 0.0 N 0.0 1009.2
23:20 16.5 83 13.6 0.0 0.0 N 0.0 1009.4
23:30 16.5 83 13.6 0.0 0.0 N 0.0 1009.3
23:40 16.6 83 13.7 0.0 0.0 N 0.0 1009.4
23:50 16.6 82 13.5 0.0 0.0 N 0.0 1009.3